sensor_id;sensor_type;location;lat;lon;timestamp;pressure;altitude;pressure_sealevel;temperature;humidity
11525;BME280;5819;49.648;8.330;2022-12-18T00:01:27;101818.63;;;-6.29;100.00
11525;BME280;5819;49.648;8.330;2022-12-18T00:03:58;101823.84;;;-6.26;100.00
11525;BME280;5819;49.648;8.330;2022-12-18T00:06:28;101826.53;;;-6.23;100.00
11525;BME280;5819;49.648;8.330;2022-12-18T00:08:57;101809.78;;;-6.03;100.00
11525;BME280;5819;49.648;8.330;2022-12-18T00:11:27;101807.59;;;-6.13;100.00
11525;BME280;5819;49.648;8.330;2022-12-18T00:13:58;101803.69;;;-6.24;100.00
11525;BME280;5819;49.648;8.330;2022-12-18T00:16:28;101803.81;;;-5.86;100.00
11525;BME280;5819;49.648;8.330;2022-12-18T00:18:58;101807.03;;;-6.07;100.00
11525;BME280;5819;49.648;8.330;2022-12-18T00:21:27;101820.53;;;-6.25;100.00
11525;BME280;5819;49.648;8.330;2022-12-18T00:23:55;101814.03;;;-6.20;100.00
11525;BME280;5819;49.648;8.330;2022-12-18T00:26:24;101838.81;;;-6.30;100.00
11525;BME280;5819;49.648;8.330;2022-12-18T00:29:00;101837.13;;;-6.30;100.00
11525;BME280;5819;49.648;8.330;2022-12-18T00:31:30;101840.91;;;-6.39;100.00
11525;BME280;5819;49.648;8.330;2022-12-18T00:34:00;101842.25;;;-6.46;100.00
11525;BME280;5819;49.648;8.330;2022-12-18T00:36:29;101836.66;;;-6.56;100.00
11525;BME280;5819;49.648;8.330;2022-12-18T00:38:58;101840.59;;;-6.62;100.00
11525;BME280;5819;49.648;8.330;2022-12-18T00:41:27;101842.50;;;-6.57;100.00
11525;BME280;5819;49.648;8.330;2022-12-18T00:44:19;101835.75;;;-6.41;100.00
11525;BME280;5819;49.648;8.330;2022-12-18T00:46:47;101839.19;;;-6.56;100.00
11525;BME280;5819;49.648;8.330;2022-12-18T00:49:16;101845.50;;;-6.65;100.00
11525;BME280;5819;49.648;8.330;2022-12-18T00:51:45;101843.31;;;-6.58;100.00
11525;BME280;5819;49.648;8.330;2022-12-18T00:54:13;101843.13;;;-6.62;100.00
11525;BME280;5819;49.648;8.330;2022-12-18T00:56:41;101844.47;;;-6.52;100.00
11525;BME280;5819;49.648;8.330;2022-12-18T00:59:27;101835.97;;;-6.70;100.00
11525;BME280;5819;49.648;8.330;2022-12-18T01:01:56;101833.91;;;-6.77;100.00
11525;BME280;5819;49.648;8.330;2022-12-18T01:04:24;101842.22;;;-6.80;100.00
11525;BME280;5819;49.648;8.330;2022-12-18T01:06:52;101832.81;;;-6.66;100.00
11525;BME280;5819;49.648;8.330;2022-12-18T01:09:19;101828.53;;;-6.67;100.00
11525;BME280;5819;49.648;8.330;2022-12-18T01:11:47;101832.97;;;-6.79;100.00
11525;BME280;5819;49.648;8.330;2022-12-18T01:14:15;101834.28;;;-6.86;100.00
11525;BME280;5819;49.648;8.330;2022-12-18T01:16:44;101832.72;;;-6.84;100.00
11525;BME280;5819;49.648;8.330;2022-12-18T01:19:12;101833.22;;;-6.75;100.00
11525;BME280;5819;49.648;8.330;2022-12-18T01:21:40;101844.75;;;-6.80;100.00
11525;BME280;5819;49.648;8.330;2022-12-18T01:24:11;101843.47;;;-6.88;100.00
11525;BME280;5819;49.648;8.330;2022-12-18T01:26:40;101847.91;;;-7.00;100.00
11525;BME280;5819;49.648;8.330;2022-12-18T01:29:08;101850.44;;;-7.00;100.00
11525;BME280;5819;49.648;8.330;2022-12-18T01:31:36;101836.38;;;-6.95;100.00
11525;BME280;5819;49.648;8.330;2022-12-18T01:34:05;101831.38;;;-7.10;100.00
11525;BME280;5819;49.648;8.330;2022-12-18T01:36:35;101838.41;;;-7.20;100.00
11525;BME280;5819;49.648;8.330;2022-12-18T01:39:05;101856.88;;;-7.21;100.00
11525;BME280;5819;49.648;8.330;2022-12-18T01:41:34;101858.63;;;-7.20;100.00
11525;BME280;5819;49.648;8.330;2022-12-18T01:44:54;101864.03;;;-7.14;100.00
11525;BME280;5819;49.648;8.330;2022-12-18T01:47:24;101866.38;;;-7.01;100.00
11525;BME280;5819;49.648;8.330;2022-12-18T01:49:56;101863.38;;;-7.10;100.00
11525;BME280;5819;49.648;8.330;2022-12-18T01:52:26;101853.19;;;-7.12;100.00
11525;BME280;5819;49.648;8.330;2022-12-18T01:54:56;101861.31;;;-7.17;100.00
11525;BME280;5819;49.648;8.330;2022-12-18T01:57:25;101864.88;;;-7.14;100.00
11525;BME280;5819;49.648;8.330;2022-12-18T01:59:57;101860.31;;;-7.04;100.00
11525;BME280;5819;49.648;8.330;2022-12-18T02:02:27;101855.50;;;-7.00;100.00
11525;BME280;5819;49.648;8.330;2022-12-18T02:04:57;101854.22;;;-6.92;100.00
11525;BME280;5819;49.648;8.330;2022-12-18T02:07:32;101858.91;;;-6.83;100.00
11525;BME280;5819;49.648;8.330;2022-12-18T02:10:07;101867.34;;;-6.83;100.00
11525;BME280;5819;49.648;8.330;2022-12-18T02:12:43;101858.66;;;-6.72;100.00
11525;BME280;5819;49.648;8.330;2022-12-18T02:15:17;101864.00;;;-6.82;100.00
11525;BME280;5819;49.648;8.330;2022-12-18T02:17:52;101873.03;;;-6.87;100.00
11525;BME280;5819;49.648;8.330;2022-12-18T02:20:25;101859.03;;;-6.64;100.00
11525;BME280;5819;49.648;8.330;2022-12-18T02:23:06;101858.91;;;-6.83;100.00
11525;BME280;5819;49.648;8.330;2022-12-18T02:26:04;101859.28;;;-6.92;100.00
11525;BME280;5819;49.648;8.330;2022-12-18T02:28:37;101856.91;;;-6.89;100.00
11525;BME280;5819;49.648;8.330;2022-12-18T02:31:13;101853.34;;;-6.92;100.00
11525;BME280;5819;49.648;8.330;2022-12-18T02:33:44;101843.09;;;-6.95;100.00
11525;BME280;5819;49.648;8.330;2022-12-18T02:36:14;101836.44;;;-6.93;100.00
11525;BME280;5819;49.648;8.330;2022-12-18T02:38:45;101833.13;;;-6.92;100.00
11525;BME280;5819;49.648;8.330;2022-12-18T02:41:17;101829.88;;;-6.90;100.00
11525;BME280;5819;49.648;8.330;2022-12-18T02:43:47;101832.25;;;-6.93;100.00
11525;BME280;5819;49.648;8.330;2022-12-18T02:46:33;101813.91;;;-6.89;100.00
11525;BME280;5819;49.648;8.330;2022-12-18T02:49:17;101816.53;;;-6.87;100.00
11525;BME280;5819;49.648;8.330;2022-12-18T02:51:51;101817.84;;;-6.78;100.00
11525;BME280;5819;49.648;8.330;2022-12-18T02:54:29;101819.38;;;-6.81;100.00
11525;BME280;5819;49.648;8.330;2022-12-18T02:57:10;101824.38;;;-6.83;100.00
11525;BME280;5819;49.648;8.330;2022-12-18T02:59:47;101828.94;;;-7.08;100.00
11525;BME280;5819;49.648;8.330;2022-12-18T03:02:21;101833.91;;;-7.10;100.00
11525;BME280;5819;49.648;8.330;2022-12-18T03:04:57;101830.75;;;-7.05;100.00
11525;BME280;5819;49.648;8.330;2022-12-18T03:07:35;101847.75;;;-7.19;100.00
11525;BME280;5819;49.648;8.330;2022-12-18T03:10:12;101862.13;;;-7.18;100.00
11525;BME280;5819;49.648;8.330;2022-12-18T03:12:47;101842.44;;;-7.07;100.00
11525;BME280;5819;49.648;8.330;2022-12-18T03:15:21;101826.56;;;-7.05;100.00
11525;BME280;5819;49.648;8.330;2022-12-18T03:17:59;101819.59;;;-7.09;100.00
11525;BME280;5819;49.648;8.330;2022-12-18T03:20:31;101824.41;;;-7.14;100.00
11525;BME280;5819;49.648;8.330;2022-12-18T03:23:05;101826.88;;;-7.15;100.00
11525;BME280;5819;49.648;8.330;2022-12-18T03:25:38;101828.78;;;-7.11;100.00
11525;BME280;5819;49.648;8.330;2022-12-18T03:28:09;101836.97;;;-7.31;100.00
11525;BME280;5819;49.648;8.330;2022-12-18T03:30:41;101838.78;;;-7.29;100.00
11525;BME280;5819;49.648;8.330;2022-12-18T03:33:14;101845.75;;;-7.25;100.00
11525;BME280;5819;49.648;8.330;2022-12-18T03:35:48;101842.19;;;-7.28;100.00
11525;BME280;5819;49.648;8.330;2022-12-18T03:38:17;101841.72;;;-7.21;100.00
11525;BME280;5819;49.648;8.330;2022-12-18T03:40:54;101831.94;;;-7.31;100.00
11525;BME280;5819;49.648;8.330;2022-12-18T03:43:34;101834.28;;;-7.34;100.00
11525;BME280;5819;49.648;8.330;2022-12-18T03:46:10;101829.00;;;-7.39;100.00
11525;BME280;5819;49.648;8.330;2022-12-18T03:48:45;101836.00;;;-7.33;100.00
11525;BME280;5819;49.648;8.330;2022-12-18T03:51:22;101834.13;;;-7.37;100.00
11525;BME280;5819;49.648;8.330;2022-12-18T03:53:56;101840.88;;;-7.52;100.00
11525;BME280;5819;49.648;8.330;2022-12-18T03:56:32;101841.66;;;-7.53;100.00
11525;BME280;5819;49.648;8.330;2022-12-18T03:59:04;101851.31;;;-7.46;100.00
11525;BME280;5819;49.648;8.330;2022-12-18T04:01:37;101847.94;;;-7.47;100.00
11525;BME280;5819;49.648;8.330;2022-12-18T04:04:08;101841.91;;;-7.49;100.00
11525;BME280;5819;49.648;8.330;2022-12-18T04:06:39;101847.00;;;-7.64;100.00
11525;BME280;5819;49.648;8.330;2022-12-18T04:09:10;101833.09;;;-7.72;100.00
11525;BME280;5819;49.648;8.330;2022-12-18T04:11:42;101835.97;;;-7.80;100.00
11525;BME280;5819;49.648;8.330;2022-12-18T04:14:15;101841.56;;;-7.86;100.00
11525;BME280;5819;49.648;8.330;2022-12-18T04:16:47;101835.88;;;-7.82;100.00
11525;BME280;5819;49.648;8.330;2022-12-18T04:19:17;101834.25;;;-7.81;100.00
11525;BME280;5819;49.648;8.330;2022-12-18T04:21:50;101834.59;;;-7.90;100.00
11525;BME280;5819;49.648;8.330;2022-12-18T04:24:18;101825.94;;;-7.95;100.00
11525;BME280;5819;49.648;8.330;2022-12-18T04:27:02;101831.50;;;-8.00;100.00
11525;BME280;5819;49.648;8.330;2022-12-18T04:29:39;101828.97;;;-8.00;100.00
11525;BME280;5819;49.648;8.330;2022-12-18T04:32:07;101831.31;;;-8.03;100.00
11525;BME280;5819;49.648;8.330;2022-12-18T04:34:36;101826.13;;;-8.07;100.00
11525;BME280;5819;49.648;8.330;2022-12-18T04:37:04;101838.53;;;-8.10;100.00
11525;BME280;5819;49.648;8.330;2022-12-18T04:39:32;101835.69;;;-8.16;100.00
11525;BME280;5819;49.648;8.330;2022-12-18T04:42:05;101833.22;;;-8.14;100.00
11525;BME280;5819;49.648;8.330;2022-12-18T04:44:33;101829.88;;;-8.15;100.00
11525;BME280;5819;49.648;8.330;2022-12-18T04:47:03;101827.84;;;-8.06;100.00
11525;BME280;5819;49.648;8.330;2022-12-18T04:49:31;101839.16;;;-8.28;100.00
11525;BME280;5819;49.648;8.330;2022-12-18T04:51:58;101841.69;;;-8.28;100.00
11525;BME280;5819;49.648;8.330;2022-12-18T04:54:27;101844.16;;;-8.30;100.00
11525;BME280;5819;49.648;8.330;2022-12-18T04:56:55;101841.47;;;-8.33;100.00
11525;BME280;5819;49.648;8.330;2022-12-18T04:59:22;101843.97;;;-8.33;100.00
11525;BME280;5819;49.648;8.330;2022-12-18T05:01:50;101847.22;;;-8.35;100.00
11525;BME280;5819;49.648;8.330;2022-12-18T05:04:20;101845.28;;;-8.39;100.00
11525;BME280;5819;49.648;8.330;2022-12-18T05:06:48;101850.25;;;-8.41;100.00
11525;BME280;5819;49.648;8.330;2022-12-18T05:09:16;101847.72;;;-8.41;100.00
11525;BME280;5819;49.648;8.330;2022-12-18T05:11:44;101840.25;;;-8.39;100.00
11525;BME280;5819;49.648;8.330;2022-12-18T05:14:13;101853.63;;;-8.40;100.00
11525;BME280;5819;49.648;8.330;2022-12-18T05:16:41;101859.72;;;-8.51;100.00
11525;BME280;5819;49.648;8.330;2022-12-18T05:19:09;101862.84;;;-8.56;100.00
11525;BME280;5819;49.648;8.330;2022-12-18T05:21:38;101853.84;;;-8.65;100.00
11525;BME280;5819;49.648;8.330;2022-12-18T05:24:06;101845.84;;;-8.58;100.00
11525;BME280;5819;49.648;8.330;2022-12-18T05:26:34;101847.44;;;-8.45;100.00
11525;BME280;5819;49.648;8.330;2022-12-18T05:29:02;101846.66;;;-8.30;100.00
11525;BME280;5819;49.648;8.330;2022-12-18T05:31:30;101848.03;;;-8.20;100.00
11525;BME280;5819;49.648;8.330;2022-12-18T05:34:05;101833.84;;;-8.03;100.00
11525;BME280;5819;49.648;8.330;2022-12-18T05:36:33;101849.31;;;-7.97;100.00
11525;BME280;5819;49.648;8.330;2022-12-18T05:39:02;101859.34;;;-7.99;100.00
11525;BME280;5819;49.648;8.330;2022-12-18T05:41:31;101850.03;;;-8.00;100.00
11525;BME280;5819;49.648;8.330;2022-12-18T05:43:59;101842.63;;;-7.97;100.00
11525;BME280;5819;49.648;8.330;2022-12-18T05:46:27;101839.31;;;-7.96;100.00
11525;BME280;5819;49.648;8.330;2022-12-18T05:48:59;101844.97;;;-8.00;100.00
11525;BME280;5819;49.648;8.330;2022-12-18T05:51:27;101843.75;;;-7.92;100.00
11525;BME280;5819;49.648;8.330;2022-12-18T05:53:55;101848.53;;;-7.96;100.00
11525;BME280;5819;49.648;8.330;2022-12-18T05:56:24;101842.88;;;-7.92;100.00
11525;BME280;5819;49.648;8.330;2022-12-18T05:58:53;101848.91;;;-7.90;100.00
11525;BME280;5819;49.648;8.330;2022-12-18T06:01:23;101855.41;;;-7.94;100.00
11525;BME280;5819;49.648;8.330;2022-12-18T06:03:51;101849.25;;;-7.99;100.00
11525;BME280;5819;49.648;8.330;2022-12-18T06:06:21;101852.72;;;-7.97;100.00
11525;BME280;5819;49.648;8.330;2022-12-18T06:08:51;101858.72;;;-8.10;100.00
11525;BME280;5819;49.648;8.330;2022-12-18T06:11:21;101854.03;;;-8.18;100.00
11525;BME280;5819;49.648;8.330;2022-12-18T06:13:53;101872.50;;;-8.19;100.00
11525;BME280;5819;49.648;8.330;2022-12-18T06:16:25;101871.69;;;-8.18;100.00
11525;BME280;5819;49.648;8.330;2022-12-18T06:18:53;101868.59;;;-8.29;100.00
11525;BME280;5819;49.648;8.330;2022-12-18T06:21:20;101875.28;;;-8.29;100.00
11525;BME280;5819;49.648;8.330;2022-12-18T06:23:48;101873.53;;;-8.30;100.00
11525;BME280;5819;49.648;8.330;2022-12-18T06:26:16;101875.13;;;-8.32;100.00
11525;BME280;5819;49.648;8.330;2022-12-18T06:28:51;101885.03;;;-8.35;100.00
11525;BME280;5819;49.648;8.330;2022-12-18T06:31:19;101888.06;;;-8.41;100.00
11525;BME280;5819;49.648;8.330;2022-12-18T06:33:47;101888.25;;;-8.38;100.00
11525;BME280;5819;49.648;8.330;2022-12-18T06:36:14;101882.41;;;-8.37;100.00
11525;BME280;5819;49.648;8.330;2022-12-18T06:38:43;101890.09;;;-8.35;100.00
11525;BME280;5819;49.648;8.330;2022-12-18T06:41:13;101889.13;;;-8.37;100.00
11525;BME280;5819;49.648;8.330;2022-12-18T06:43:40;101896.50;;;-8.40;100.00
11525;BME280;5819;49.648;8.330;2022-12-18T06:46:11;101909.13;;;-8.40;100.00
11525;BME280;5819;49.648;8.330;2022-12-18T06:48:39;101915.38;;;-8.34;100.00
11525;BME280;5819;49.648;8.330;2022-12-18T06:51:07;101916.88;;;-8.37;100.00
11525;BME280;5819;49.648;8.330;2022-12-18T06:53:35;101915.13;;;-8.38;100.00
11525;BME280;5819;49.648;8.330;2022-12-18T06:56:06;101912.25;;;-8.30;100.00
11525;BME280;5819;49.648;8.330;2022-12-18T06:58:36;101913.41;;;-8.39;100.00
11525;BME280;5819;49.648;8.330;2022-12-18T07:01:06;101906.94;;;-8.34;100.00
11525;BME280;5819;49.648;8.330;2022-12-18T07:03:35;101920.53;;;-8.32;100.00
11525;BME280;5819;49.648;8.330;2022-12-18T07:06:04;101914.63;;;-8.33;100.00
11525;BME280;5819;49.648;8.330;2022-12-18T07:08:33;101914.63;;;-8.33;100.00
11525;BME280;5819;49.648;8.330;2022-12-18T07:11:03;101909.66;;;-8.31;100.00
11525;BME280;5819;49.648;8.330;2022-12-18T07:13:31;101904.94;;;-8.25;100.00
11525;BME280;5819;49.648;8.330;2022-12-18T07:16:04;101913.38;;;-8.25;100.00
11525;BME280;5819;49.648;8.330;2022-12-18T07:18:42;101909.97;;;-8.25;100.00
11525;BME280;5819;49.648;8.330;2022-12-18T07:21:14;101915.03;;;-8.25;100.00
11525;BME280;5819;49.648;8.330;2022-12-18T07:23:42;101914.34;;;-8.37;100.00
11525;BME280;5819;49.648;8.330;2022-12-18T07:26:12;101908.69;;;-8.33;100.00
11525;BME280;5819;49.648;8.330;2022-12-18T07:28:41;101911.03;;;-8.36;100.00
11525;BME280;5819;49.648;8.330;2022-12-18T07:31:12;101904.19;;;-8.39;100.00
11525;BME280;5819;49.648;8.330;2022-12-18T07:33:44;101909.03;;;-8.42;100.00
11525;BME280;5819;49.648;8.330;2022-12-18T07:36:12;101908.41;;;-8.52;100.00
11525;BME280;5819;49.648;8.330;2022-12-18T07:38:40;101916.63;;;-8.70;100.00
11525;BME280;5819;49.648;8.330;2022-12-18T07:41:09;101912.28;;;-8.72;100.00
11525;BME280;5819;49.648;8.330;2022-12-18T07:43:39;101913.03;;;-8.73;100.00
11525;BME280;5819;49.648;8.330;2022-12-18T07:46:09;101923.91;;;-8.74;100.00
11525;BME280;5819;49.648;8.330;2022-12-18T07:48:39;101920.19;;;-8.66;100.00
11525;BME280;5819;49.648;8.330;2022-12-18T07:51:08;101916.88;;;-8.65;100.00
11525;BME280;5819;49.648;8.330;2022-12-18T07:53:36;101924.63;;;-8.62;100.00
11525;BME280;5819;49.648;8.330;2022-12-18T07:56:08;101929.50;;;-8.65;100.00
11525;BME280;5819;49.648;8.330;2022-12-18T07:58:54;101927.53;;;-8.56;100.00
11525;BME280;5819;49.648;8.330;2022-12-18T08:01:22;101929.81;;;-8.46;100.00
11525;BME280;5819;49.648;8.330;2022-12-18T08:03:51;101930.34;;;-8.51;100.00
11525;BME280;5819;49.648;8.330;2022-12-18T08:06:20;101936.88;;;-8.40;100.00
11525;BME280;5819;49.648;8.330;2022-12-18T08:08:52;101932.53;;;-8.43;100.00
11525;BME280;5819;49.648;8.330;2022-12-18T08:11:20;101942.09;;;-8.37;100.00
11525;BME280;5819;49.648;8.330;2022-12-18T08:13:48;101941.75;;;-8.29;100.00
11525;BME280;5819;49.648;8.330;2022-12-18T08:16:16;101946.88;;;-8.27;100.00
11525;BME280;5819;49.648;8.330;2022-12-18T08:18:45;101946.00;;;-8.28;100.00
11525;BME280;5819;49.648;8.330;2022-12-18T08:21:14;101949.91;;;-8.18;100.00
11525;BME280;5819;49.648;8.330;2022-12-18T08:23:44;101950.50;;;-8.22;100.00
11525;BME280;5819;49.648;8.330;2022-12-18T08:26:14;101956.72;;;-8.32;100.00
11525;BME280;5819;49.648;8.330;2022-12-18T08:28:42;101938.38;;;-8.29;100.00
11525;BME280;5819;49.648;8.330;2022-12-18T08:31:10;101936.53;;;-8.32;100.00
11525;BME280;5819;49.648;8.330;2022-12-18T08:33:39;101926.28;;;-8.35;100.00
11525;BME280;5819;49.648;8.330;2022-12-18T08:36:09;101918.72;;;-8.35;100.00
11525;BME280;5819;49.648;8.330;2022-12-18T08:38:37;101918.13;;;-8.31;100.00
11525;BME280;5819;49.648;8.330;2022-12-18T08:41:08;101915.66;;;-8.29;100.00
11525;BME280;5819;49.648;8.330;2022-12-18T08:43:36;101926.44;;;-8.17;100.00
11525;BME280;5819;49.648;8.330;2022-12-18T08:46:24;101924.78;;;-8.17;100.00
11525;BME280;5819;49.648;8.330;2022-12-18T08:48:54;101916.78;;;-8.10;100.00
11525;BME280;5819;49.648;8.330;2022-12-18T08:51:22;101905.06;;;-7.94;100.00
11525;BME280;5819;49.648;8.330;2022-12-18T08:53:50;101902.94;;;-7.87;100.00
11525;BME280;5819;49.648;8.330;2022-12-18T08:56:19;101894.22;;;-7.77;100.00
11525;BME280;5819;49.648;8.330;2022-12-18T08:58:47;101885.09;;;-7.75;100.00
11525;BME280;5819;49.648;8.330;2022-12-18T09:01:14;101883.88;;;-7.67;100.00
11525;BME280;5819;49.648;8.330;2022-12-18T09:03:42;101887.69;;;-7.74;100.00
11525;BME280;5819;49.648;8.330;2022-12-18T09:06:13;101878.56;;;-7.72;100.00
11525;BME280;5819;49.648;8.330;2022-12-18T09:08:42;101875.56;;;-7.65;100.00
11525;BME280;5819;49.648;8.330;2022-12-18T09:11:13;101884.19;;;-7.61;100.00
11525;BME280;5819;49.648;8.330;2022-12-18T09:13:42;101884.94;;;-7.47;100.00
11525;BME280;5819;49.648;8.330;2022-12-18T09:16:10;101885.97;;;-7.44;100.00
11525;BME280;5819;49.648;8.330;2022-12-18T09:18:38;101893.56;;;-7.44;100.00
11525;BME280;5819;49.648;8.330;2022-12-18T09:21:10;101901.66;;;-7.35;100.00
11525;BME280;5819;49.648;8.330;2022-12-18T09:23:39;101906.59;;;-7.36;100.00
11525;BME280;5819;49.648;8.330;2022-12-18T09:26:07;101904.59;;;-7.27;100.00
11525;BME280;5819;49.648;8.330;2022-12-18T09:28:35;101910.94;;;-7.19;100.00
11525;BME280;5819;49.648;8.330;2022-12-18T09:31:07;101913.66;;;-7.31;100.00
11525;BME280;5819;49.648;8.330;2022-12-18T09:33:35;101908.50;;;-7.32;100.00
11525;BME280;5819;49.648;8.330;2022-12-18T09:36:06;101910.00;;;-7.36;100.00
11525;BME280;5819;49.648;8.330;2022-12-18T09:38:35;101918.97;;;-7.26;100.00
11525;BME280;5819;49.648;8.330;2022-12-18T09:41:05;101926.00;;;-7.21;100.00
11525;BME280;5819;49.648;8.330;2022-12-18T09:43:46;101930.53;;;-7.30;100.00
11525;BME280;5819;49.648;8.330;2022-12-18T09:46:26;101935.53;;;-7.31;100.00
11525;BME280;5819;49.648;8.330;2022-12-18T09:48:58;101929.50;;;-7.33;100.00
11525;BME280;5819;49.648;8.330;2022-12-18T09:51:29;101930.00;;;-7.24;100.00
11525;BME280;5819;49.648;8.330;2022-12-18T09:54:00;101935.25;;;-7.05;100.00
11525;BME280;5819;49.648;8.330;2022-12-18T09:56:31;101940.31;;;-7.05;100.00
11525;BME280;5819;49.648;8.330;2022-12-18T09:59:04;101931.25;;;-7.01;100.00
11525;BME280;5819;49.648;8.330;2022-12-18T10:01:33;101932.38;;;-6.96;100.00
11525;BME280;5819;49.648;8.330;2022-12-18T10:04:10;101929.75;;;-6.98;100.00
11525;BME280;5819;49.648;8.330;2022-12-18T10:06:42;101918.16;;;-6.94;100.00
11525;BME280;5819;49.648;8.330;2022-12-18T10:09:21;101918.84;;;-6.97;100.00
11525;BME280;5819;49.648;8.330;2022-12-18T10:11:55;101919.97;;;-6.92;100.00
11525;BME280;5819;49.648;8.330;2022-12-18T10:14:30;101921.34;;;-6.82;100.00
11525;BME280;5819;49.648;8.330;2022-12-18T10:17:13;101923.44;;;-6.74;100.00
11525;BME280;5819;49.648;8.330;2022-12-18T10:19:47;101919.66;;;-6.66;100.00
11525;BME280;5819;49.648;8.330;2022-12-18T10:22:30;101921.09;;;-6.71;100.00
11525;BME280;5819;49.648;8.330;2022-12-18T10:25:04;101928.31;;;-6.62;100.00
11525;BME280;5819;49.648;8.330;2022-12-18T10:27:35;101914.38;;;-6.54;100.00
11525;BME280;5819;49.648;8.330;2022-12-18T10:30:12;101911.44;;;-6.45;100.00
11525;BME280;5819;49.648;8.330;2022-12-18T10:32:42;101904.66;;;-6.46;100.00
11525;BME280;5819;49.648;8.330;2022-12-18T10:35:16;101892.63;;;-6.34;100.00
11525;BME280;5819;49.648;8.330;2022-12-18T10:38:06;101893.63;;;-6.31;100.00
11525;BME280;5819;49.648;8.330;2022-12-18T10:40:49;101891.09;;;-6.31;100.00
11525;BME280;5819;49.648;8.330;2022-12-18T10:43:20;101891.03;;;-6.32;100.00
11525;BME280;5819;49.648;8.330;2022-12-18T10:46:12;101893.44;;;-6.18;100.00
11525;BME280;5819;49.648;8.330;2022-12-18T10:48:53;101889.47;;;-6.12;100.00
11525;BME280;5819;49.648;8.330;2022-12-18T10:51:23;101889.78;;;-6.06;100.00
11525;BME280;5819;49.648;8.330;2022-12-18T10:53:57;101896.56;;;-6.05;100.00
11525;BME280;5819;49.648;8.330;2022-12-18T10:56:30;101890.72;;;-6.04;100.00
11525;BME280;5819;49.648;8.330;2022-12-18T10:59:00;101888.72;;;-5.94;100.00
11525;BME280;5819;49.648;8.330;2022-12-18T11:01:45;101899.28;;;-5.67;100.00
11525;BME280;5819;49.648;8.330;2022-12-18T11:04:19;101901.59;;;-5.72;100.00
11525;BME280;5819;49.648;8.330;2022-12-18T11:06:56;101905.31;;;-5.81;100.00
11525;BME280;5819;49.648;8.330;2022-12-18T11:09:26;101894.13;;;-5.69;100.00
11525;BME280;5819;49.648;8.330;2022-12-18T11:11:55;101895.50;;;-5.75;100.00
11525;BME280;5819;49.648;8.330;2022-12-18T11:14:27;101892.00;;;-5.77;100.00
11525;BME280;5819;49.648;8.330;2022-12-18T11:16:58;101893.16;;;-5.90;100.00
11525;BME280;5819;49.648;8.330;2022-12-18T11:19:52;101895.84;;;-5.85;100.00
11525;BME280;5819;49.648;8.330;2022-12-18T11:22:23;101882.69;;;-5.78;100.00
11525;BME280;5819;49.648;8.330;2022-12-18T11:24:56;101890.00;;;-5.84;100.00
11525;BME280;5819;49.648;8.330;2022-12-18T11:27:48;101872.97;;;-5.69;100.00
11525;BME280;5819;49.648;8.330;2022-12-18T11:30:22;101887.84;;;-5.59;100.00
11525;BME280;5819;49.648;8.330;2022-12-18T11:32:54;101883.69;;;-5.57;100.00
11525;BME280;5819;49.648;8.330;2022-12-18T11:35:33;101883.69;;;-5.39;100.00
11525;BME280;5819;49.648;8.330;2022-12-18T11:38:10;101880.03;;;-5.46;100.00
11525;BME280;5819;49.648;8.330;2022-12-18T11:40:44;101871.69;;;-5.43;100.00
11525;BME280;5819;49.648;8.330;2022-12-18T11:43:16;101874.00;;;-5.48;100.00
11525;BME280;5819;49.648;8.330;2022-12-18T11:45:50;101875.44;;;-5.53;100.00
11525;BME280;5819;49.648;8.330;2022-12-18T11:48:23;101870.00;;;-5.60;100.00
11525;BME280;5819;49.648;8.330;2022-12-18T11:50:55;101881.97;;;-5.58;100.00
11525;BME280;5819;49.648;8.330;2022-12-18T11:53:24;101881.25;;;-5.55;100.00
11525;BME280;5819;49.648;8.330;2022-12-18T11:56:04;101877.28;;;-5.50;100.00
11525;BME280;5819;49.648;8.330;2022-12-18T11:58:45;101874.72;;;-5.50;100.00
11525;BME280;5819;49.648;8.330;2022-12-18T12:01:22;101860.41;;;-5.50;100.00
11525;BME280;5819;49.648;8.330;2022-12-18T12:04:09;101868.94;;;-5.48;100.00
11525;BME280;5819;49.648;8.330;2022-12-18T12:06:48;101864.50;;;-5.34;100.00
11525;BME280;5819;49.648;8.330;2022-12-18T12:09:23;101856.28;;;-5.29;100.00
11525;BME280;5819;49.648;8.330;2022-12-18T12:12:05;101859.13;;;-5.23;100.00
11525;BME280;5819;49.648;8.330;2022-12-18T12:14:45;101860.91;;;-5.20;100.00
11525;BME280;5819;49.648;8.330;2022-12-18T12:17:24;101840.59;;;-5.02;100.00
11525;BME280;5819;49.648;8.330;2022-12-18T12:20:02;101836.31;;;-5.23;100.00
11525;BME280;5819;49.648;8.330;2022-12-18T12:22:42;101840.75;;;-5.17;100.00
11525;BME280;5819;49.648;8.330;2022-12-18T12:25:33;101837.38;;;-5.17;100.00
11525;BME280;5819;49.648;8.330;2022-12-18T12:28:15;101836.56;;;-5.16;100.00
11525;BME280;5819;49.648;8.330;2022-12-18T12:30:54;101831.28;;;-5.21;100.00
11525;BME280;5819;49.648;8.330;2022-12-18T12:33:35;101833.41;;;-5.30;100.00
11525;BME280;5819;49.648;8.330;2022-12-18T12:36:09;101832.41;;;-5.34;100.00
11525;BME280;5819;49.648;8.330;2022-12-18T12:38:43;101828.16;;;-5.15;100.00
11525;BME280;5819;49.648;8.330;2022-12-18T12:41:19;101823.88;;;-5.16;100.00
11525;BME280;5819;49.648;8.330;2022-12-18T12:44:08;101812.16;;;-5.14;100.00
11525;BME280;5819;49.648;8.330;2022-12-18T12:46:41;101818.69;;;-5.20;100.00
11525;BME280;5819;49.648;8.330;2022-12-18T12:49:13;101819.63;;;-5.17;100.00
11525;BME280;5819;49.648;8.330;2022-12-18T12:51:44;101816.00;;;-5.23;100.00
11525;BME280;5819;49.648;8.330;2022-12-18T12:54:17;101805.88;;;-5.03;100.00
11525;BME280;5819;49.648;8.330;2022-12-18T12:56:50;101812.41;;;-5.08;100.00
11525;BME280;5819;49.648;8.330;2022-12-18T12:59:26;101803.78;;;-4.93;100.00
11525;BME280;5819;49.648;8.330;2022-12-18T13:02:04;101792.13;;;-5.08;100.00
11525;BME280;5819;49.648;8.330;2022-12-18T13:04:38;101796.84;;;-5.16;100.00
11525;BME280;5819;49.648;8.330;2022-12-18T13:07:15;101796.41;;;-5.27;100.00
11525;BME280;5819;49.648;8.330;2022-12-18T13:12:59;101777.38;;;-4.98;100.00
11525;BME280;5819;49.648;8.330;2022-12-18T13:15:31;101775.25;;;-5.08;100.00
11525;BME280;5819;49.648;8.330;2022-12-18T13:18:11;101768.34;;;-4.91;100.00
11525;BME280;5819;49.648;8.330;2022-12-18T13:20:43;101772.09;;;-5.02;100.00